createdAt,value
2023-01-09T00:00:29.327Z,52.16
2023-01-09T00:02:56.847Z,51.66
2023-01-09T00:05:24.058Z,51.55
2023-01-09T00:07:51.192Z,51.17
2023-01-09T00:10:18.847Z,51.04
2023-01-09T00:12:46.062Z,52.21
2023-01-09T00:15:13.461Z,51.46
2023-01-09T00:17:41.363Z,51.68
2023-01-09T00:20:09.798Z,51.92
2023-01-09T00:22:37.550Z,51.78
2023-01-09T00:25:05.475Z,52.38
2023-01-09T00:27:35.925Z,52.84
2023-01-09T00:30:03.505Z,52.65
2023-01-09T00:32:32.235Z,53.01
2023-01-09T00:34:59.467Z,52.95
2023-01-09T00:37:26.725Z,53.03
2023-01-09T00:39:54.150Z,51.79
2023-01-09T00:42:22.585Z,52.90
2023-01-09T00:44:51.139Z,52.17
2023-01-09T00:47:51.168Z,51.58
2023-01-09T00:50:22.608Z,52.01
2023-01-09T00:52:50.529Z,52.33
2023-01-09T00:55:17.720Z,52.12
2023-01-09T00:57:44.916Z,52.58
2023-01-09T01:00:12.854Z,52.40
2023-01-09T01:02:40.074Z,53.14
2023-01-09T01:05:26.392Z,54.19
2023-01-09T01:07:53.857Z,53.33
2023-01-09T01:10:22.365Z,53.07
2023-01-09T01:12:49.861Z,53.55
2023-01-09T01:15:17.536Z,52.26
2023-01-09T01:17:45.041Z,52.80
2023-01-09T01:20:13.680Z,52.34
2023-01-09T01:22:44.125Z,53.58
2023-01-09T01:25:12.134Z,53.27
2023-01-09T01:27:39.316Z,52.51
2023-01-09T01:30:07.332Z,52.41
2023-01-09T01:32:34.575Z,53.19
2023-01-09T01:35:01.782Z,52.65
2023-01-09T01:37:29.301Z,52.24
2023-01-09T01:39:56.542Z,53.67
2023-01-09T01:42:23.704Z,52.83
2023-01-09T01:45:10.017Z,54.71
2023-01-09T01:47:37.218Z,53.69
2023-01-09T01:50:07.634Z,53.46
2023-01-09T01:52:34.905Z,54.45
2023-01-09T01:55:02.489Z,54.37
2023-01-09T01:57:30.407Z,54.75
2023-01-09T01:59:57.789Z,53.96
2023-01-09T02:02:25.908Z,52.94
2023-01-09T02:04:53.810Z,54.44
2023-01-09T02:07:21.274Z,55.08
2023-01-09T02:09:48.495Z,53.98
2023-01-09T02:12:17.193Z,52.42
2023-01-09T02:14:44.734Z,51.79
2023-01-09T02:17:41.306Z,52.95
2023-01-09T02:20:19.563Z,53.13
2023-01-09T02:22:55.954Z,55.21
2023-01-09T02:25:35.375Z,57.93
2023-01-09T02:28:02.657Z,59.54
2023-01-09T02:30:31.250Z,58.66
2023-01-09T02:33:01.506Z,58.28
2023-01-09T02:35:34.946Z,57.03
2023-01-09T02:38:21.289Z,56.30
2023-01-09T02:40:57.555Z,56.52
2023-01-09T02:43:25.220Z,58.03
2023-01-09T02:45:52.612Z,55.73
2023-01-09T02:48:19.866Z,55.66
2023-01-09T02:50:59.410Z,56.59
2023-01-09T02:53:36.764Z,55.18
2023-01-09T02:56:04.111Z,54.12
2023-01-09T02:58:33.427Z,55.18
2023-01-09T03:01:12.921Z,55.01
2023-01-09T03:03:41.753Z,53.98
2023-01-09T03:06:15.191Z,54.65
2023-01-09T03:08:46.590Z,55.93
2023-01-09T03:11:13.964Z,53.78
2023-01-09T03:13:50.047Z,55.04
2023-01-09T03:16:24.026Z,54.51
2023-01-09T03:18:51.214Z,53.91
2023-01-09T03:21:18.662Z,54.48
2023-01-09T03:23:50.532Z,53.21
2023-01-09T03:26:18.071Z,54.05
2023-01-09T03:28:45.628Z,52.73
2023-01-09T03:31:12.831Z,54.53
2023-01-09T03:33:40.168Z,59.22
2023-01-09T03:36:08.133Z,56.64
2023-01-09T03:38:35.496Z,55.90
2023-01-09T03:41:02.743Z,56.49
2023-01-09T03:43:30.756Z,57.34
2023-01-09T03:45:57.981Z,57.33
2023-01-09T03:48:25.289Z,57.11
2023-01-09T03:50:53.187Z,55.08
2023-01-09T03:53:20.825Z,55.70
2023-01-09T03:55:48.772Z,56.50
2023-01-09T03:58:16.627Z,54.09
2023-01-09T04:00:46.000Z,55.61
2023-01-09T04:03:13.503Z,55.65
2023-01-09T04:05:40.645Z,54.60
2023-01-09T04:08:07.786Z,53.25
2023-01-09T04:10:35.303Z,52.54
2023-01-09T04:13:02.799Z,54.41
2023-01-09T04:15:29.985Z,52.28
2023-01-09T04:17:57.391Z,51.86
2023-01-09T04:20:24.561Z,51.70
2023-01-09T04:22:51.752Z,51.54
2023-01-09T04:25:19.174Z,51.39
2023-01-09T04:27:47.234Z,51.41
2023-01-09T04:30:15.845Z,51.36
2023-01-09T04:32:43.347Z,52.48
2023-01-09T04:35:10.861Z,51.52
2023-01-09T04:37:38.029Z,51.77
2023-01-09T04:40:08.839Z,52.35
2023-01-09T04:42:39.326Z,51.55
2023-01-09T04:45:07.712Z,53.63
2023-01-09T04:47:34.879Z,54.02
2023-01-09T04:50:02.034Z,53.78
2023-01-09T04:52:29.599Z,53.79
2023-01-09T04:54:56.789Z,53.09
2023-01-09T04:57:24.044Z,52.16
2023-01-09T04:59:52.267Z,52.84
2023-01-09T05:02:20.073Z,54.03
2023-01-09T05:04:47.241Z,55.14
2023-01-09T05:07:14.760Z,53.76
2023-01-09T05:09:42.015Z,55.20
2023-01-09T05:12:09.162Z,53.41
2023-01-09T05:14:36.869Z,53.39
2023-01-09T05:17:04.050Z,54.78
2023-01-09T05:19:31.283Z,57.07
2023-01-09T05:21:58.679Z,57.42
2023-01-09T05:24:25.861Z,58.77
2023-01-09T05:26:53.062Z,57.85
2023-01-09T05:29:20.544Z,60.03
2023-01-09T05:31:47.857Z,58.80
2023-01-09T05:34:15.095Z,57.51
2023-01-09T05:36:42.542Z,58.54
2023-01-09T05:39:09.856Z,54.70
2023-01-09T05:41:37.025Z,53.92
2023-01-09T05:44:04.994Z,52.58
2023-01-09T05:46:32.333Z,55.20
2023-01-09T05:48:59.577Z,53.64
2023-01-09T05:51:27.007Z,55.01
2023-01-09T05:53:54.190Z,57.28
2023-01-09T05:56:21.458Z,58.94
2023-01-09T05:58:48.911Z,58.63
2023-01-09T06:01:16.349Z,59.05
2023-01-09T06:03:44.127Z,56.40
2023-01-09T06:06:11.330Z,54.73
2023-01-09T06:08:38.526Z,57.80
2023-01-09T06:11:06.039Z,55.08
2023-01-09T06:13:33.160Z,54.44
2023-01-09T06:16:00.477Z,56.87
2023-01-09T06:18:27.927Z,55.26
2023-01-09T06:20:55.132Z,58.10
2023-01-09T06:23:22.260Z,58.72
2023-01-09T06:25:49.729Z,55.84
2023-01-09T06:28:16.925Z,58.61
2023-01-09T06:30:44.147Z,57.59
2023-01-09T06:33:11.663Z,57.63
2023-01-09T06:35:38.814Z,58.25
2023-01-09T06:38:06.205Z,59.10
2023-01-09T06:40:33.746Z,59.39
2023-01-09T06:43:00.889Z,59.95
2023-01-09T06:45:28.156Z,62.76
2023-01-09T06:47:55.631Z,62.08
2023-01-09T06:50:22.822Z,61.22
2023-01-09T06:52:50.025Z,64.10
2023-01-09T06:55:17.861Z,62.91
2023-01-09T06:57:45.110Z,63.57
2023-01-09T07:00:12.499Z,64.61
2023-01-09T07:02:39.953Z,63.68
2023-01-09T07:05:08.652Z,60.18
2023-01-09T07:07:35.873Z,61.95
2023-01-09T07:10:03.306Z,60.78
2023-01-09T07:12:30.485Z,62.74
2023-01-09T07:14:57.762Z,64.42
2023-01-09T07:17:25.630Z,64.01
2023-01-09T07:19:52.768Z,63.25
2023-01-09T07:22:19.926Z,61.06
2023-01-09T07:24:47.637Z,62.43
2023-01-09T07:27:15.513Z,59.89
2023-01-09T07:29:42.682Z,60.00
2023-01-09T07:32:10.199Z,58.08
2023-01-09T07:34:37.389Z,58.09
2023-01-09T07:37:04.683Z,58.39
2023-01-09T07:39:32.190Z,61.93
2023-01-09T07:41:59.355Z,58.74
2023-01-09T07:44:26.607Z,60.01
2023-01-09T07:46:54.137Z,60.21
2023-01-09T07:49:21.406Z,59.57
2023-01-09T07:51:48.716Z,60.91
2023-01-09T07:54:16.418Z,62.04
2023-01-09T07:56:43.669Z,60.52
2023-01-09T07:59:10.849Z,58.26
2023-01-09T08:01:38.423Z,61.19
2023-01-09T08:04:05.954Z,58.53
2023-01-09T08:06:33.324Z,60.91
2023-01-09T08:09:00.547Z,64.04
2023-01-09T08:11:28.012Z,62.20
2023-01-09T08:13:55.173Z,61.01
2023-01-09T08:16:22.559Z,61.50
2023-01-09T08:18:50.139Z,62.33
2023-01-09T08:21:17.379Z,62.46
2023-01-09T08:23:45.620Z,64.06
2023-01-09T08:26:13.164Z,64.37
2023-01-09T08:28:40.329Z,64.59
2023-01-09T08:31:07.553Z,68.35
2023-01-09T08:33:35.117Z,64.81
2023-01-09T08:36:02.455Z,67.52
2023-01-09T08:38:29.644Z,66.73
2023-01-09T08:40:57.147Z,67.79
2023-01-09T08:43:43.054Z,66.52
2023-01-09T08:46:34.680Z,67.95
2023-01-09T08:49:02.004Z,65.38
2023-01-09T08:51:29.450Z,65.53
2023-01-09T08:53:56.592Z,66.44
2023-01-09T08:56:23.821Z,67.31
2023-01-09T08:58:51.284Z,65.01
2023-01-09T09:01:18.512Z,66.63
2023-01-09T09:03:45.754Z,68.91
2023-01-09T09:06:13.252Z,68.55
2023-01-09T09:08:40.463Z,67.71
2023-01-09T09:11:07.925Z,65.68
2023-01-09T09:13:35.375Z,65.96
2023-01-09T09:16:02.605Z,69.12
2023-01-09T09:18:29.808Z,64.95
2023-01-09T09:20:57.302Z,65.35
2023-01-09T09:23:24.734Z,66.02
2023-01-09T09:25:51.992Z,66.95
2023-01-09T09:28:19.451Z,69.27
2023-01-09T09:30:46.654Z,67.79
2023-01-09T09:33:13.798Z,66.02
2023-01-09T09:35:41.326Z,67.80
2023-01-09T09:38:08.522Z,69.90
2023-01-09T09:40:42.835Z,67.32
2023-01-09T09:43:39.124Z,66.93
2023-01-09T09:46:15.521Z,68.83
2023-01-09T09:48:48.723Z,64.73
2023-01-09T09:51:18.938Z,63.99
2023-01-09T09:53:49.439Z,65.12
2023-01-09T09:56:17.374Z,66.96
2023-01-09T09:58:45.844Z,67.05
2023-01-09T10:01:15.278Z,66.94
2023-01-09T10:03:52.671Z,66.20
2023-01-09T10:06:49.127Z,65.98
2023-01-09T10:09:25.675Z,64.14
2023-01-09T10:11:57.391Z,63.67
2023-01-09T10:14:24.993Z,66.00
2023-01-09T10:16:58.302Z,68.68
2023-01-09T10:19:44.263Z,66.95
2023-01-09T10:22:18.150Z,67.90
2023-01-09T10:24:51.497Z,69.22
2023-01-09T10:27:21.823Z,68.16
2023-01-09T10:29:57.845Z,63.33
2023-01-09T10:32:37.070Z,63.82
2023-01-09T10:35:13.729Z,64.84
2023-01-09T10:37:42.652Z,65.57
2023-01-09T10:40:18.423Z,68.36
2023-01-09T10:42:55.521Z,70.22
2023-01-09T10:45:22.980Z,68.80
2023-01-09T10:47:50.214Z,68.86
2023-01-09T10:50:21.650Z,68.64
2023-01-09T10:52:49.870Z,69.33
2023-01-09T10:55:19.462Z,71.52
2023-01-09T10:57:50.730Z,68.44
2023-01-09T11:00:23.722Z,69.69
2023-01-09T11:02:51.932Z,68.50
2023-01-09T11:05:20.614Z,69.32
2023-01-09T11:07:49.521Z,67.64
2023-01-09T11:10:17.441Z,66.12
2023-01-09T11:12:44.944Z,66.76
2023-01-09T11:15:23.763Z,69.08
2023-01-09T11:17:51.581Z,70.55
2023-01-09T11:20:28.606Z,71.15
2023-01-09T11:22:57.219Z,69.79
2023-01-09T11:25:25.470Z,68.98
2023-01-09T11:28:01.784Z,69.13
2023-01-09T11:30:29.880Z,69.27
2023-01-09T11:32:57.841Z,67.69
2023-01-09T11:35:34.156Z,69.13
2023-01-09T11:38:03.590Z,72.56
2023-01-09T11:40:32.327Z,71.54
2023-01-09T11:43:02.532Z,72.48
2023-01-09T11:45:30.960Z,70.96
2023-01-09T11:47:58.375Z,70.07
2023-01-09T11:50:26.577Z,71.04
2023-01-09T11:53:12.717Z,70.54
2023-01-09T11:55:42.767Z,71.44
2023-01-09T11:58:14.657Z,67.44
2023-01-09T12:00:53.883Z,66.45
2023-01-09T12:03:33.783Z,66.74
2023-01-09T12:06:10.280Z,69.29
2023-01-09T12:08:43.653Z,72.47
2023-01-09T12:11:17.162Z,70.85
2023-01-09T12:13:48.926Z,72.07
2023-01-09T12:16:19.217Z,74.20
2023-01-09T12:18:58.585Z,73.36
2023-01-09T12:21:32.049Z,73.40
2023-01-09T12:24:14.731Z,69.85
2023-01-09T12:27:04.134Z,67.19
2023-01-09T12:29:31.617Z,71.95
2023-01-09T12:32:10.973Z,73.07
2023-01-09T12:34:57.263Z,71.95
2023-01-09T12:37:43.286Z,72.13
2023-01-09T12:40:13.622Z,69.13
2023-01-09T12:42:43.794Z,68.70
2023-01-09T12:45:20.134Z,68.48
2023-01-09T12:47:48.077Z,68.48
2023-01-09T12:50:31.917Z,69.00
2023-01-09T12:53:04.485Z,68.03
2023-01-09T12:55:36.099Z,66.75
2023-01-09T12:58:06.823Z,66.55
2023-01-09T13:00:35.670Z,65.44
2023-01-09T13:03:12.879Z,64.78
2023-01-09T13:05:43.012Z,65.81
2023-01-09T13:08:28.573Z,65.11
2023-01-09T13:10:57.496Z,65.89
2023-01-09T13:13:43.685Z,66.32
2023-01-09T13:16:13.846Z,66.25
2023-01-09T13:18:44.251Z,64.35
2023-01-09T13:21:12.372Z,63.52
2023-01-09T13:23:42.310Z,62.81
2023-01-09T13:26:10.655Z,62.07
2023-01-09T13:28:41.330Z,61.66
2023-01-09T13:31:17.787Z,61.52
2023-01-09T13:33:46.053Z,60.38
2023-01-09T13:36:39.801Z,60.10
2023-01-09T13:39:07.337Z,60.16
2023-01-09T13:41:53.599Z,59.99
2023-01-09T13:44:22.257Z,61.64
2023-01-09T13:46:53.577Z,59.87
2023-01-09T13:49:36.631Z,59.40
2023-01-09T13:52:03.909Z,62.40
2023-01-09T13:54:50.067Z,60.36
2023-01-09T13:57:20.388Z,59.45
2023-01-09T13:59:50.595Z,60.11
2023-01-09T14:02:41.297Z,60.06
2023-01-09T14:05:09.661Z,63.45
2023-01-09T14:07:37.724Z,60.84
2023-01-09T14:10:06.241Z,60.50
2023-01-09T14:12:38.710Z,59.79
2023-01-09T14:15:06.045Z,59.04
2023-01-09T14:17:37.162Z,58.69
2023-01-09T14:20:08.767Z,58.15
2023-01-09T14:22:45.696Z,58.83
2023-01-09T14:25:25.234Z,59.43
2023-01-09T14:27:55.567Z,59.92
2023-01-09T14:30:25.929Z,60.57
2023-01-09T14:32:58.901Z,63.38
2023-01-09T14:35:28.054Z,63.43
2023-01-09T14:38:02.757Z,61.37
2023-01-09T14:40:29.968Z,61.14
2023-01-09T14:42:58.139Z,60.54
2023-01-09T14:45:26.199Z,59.59
2023-01-09T14:48:00.907Z,59.69
2023-01-09T14:50:41.032Z,59.77
2023-01-09T14:53:12.327Z,58.88
2023-01-09T14:55:45.864Z,58.02
2023-01-09T14:58:19.057Z,57.97
2023-01-09T15:00:51.612Z,58.14
2023-01-09T15:03:19.228Z,57.71
2023-01-09T15:05:46.756Z,58.60
2023-01-09T15:08:16.803Z,57.24
2023-01-09T15:10:45.091Z,57.28
2023-01-09T15:13:14.493Z,56.90
2023-01-09T15:15:45.926Z,57.55
2023-01-09T15:18:18.215Z,56.67
2023-01-09T15:20:45.438Z,56.82
2023-01-09T15:23:22.131Z,56.15
2023-01-09T15:25:49.652Z,56.58
2023-01-09T15:28:26.088Z,56.55
2023-01-09T15:31:04.209Z,56.24
2023-01-09T15:33:31.626Z,55.85
2023-01-09T15:36:02.760Z,56.00
2023-01-09T15:38:31.088Z,56.07
2023-01-09T15:40:59.694Z,55.86
2023-01-09T15:43:27.261Z,55.77
2023-01-09T15:45:54.485Z,56.67
2023-01-09T15:48:22.062Z,56.45
2023-01-09T15:50:50.673Z,56.55
2023-01-09T15:53:18.746Z,56.49
2023-01-09T15:55:49.490Z,56.57
2023-01-09T15:58:29.883Z,55.96
2023-01-09T16:00:58.272Z,56.90
2023-01-09T16:03:25.923Z,56.76
2023-01-09T16:05:55.289Z,56.55
2023-01-09T16:08:24.080Z,56.30
2023-01-09T16:10:52.454Z,56.78
2023-01-09T16:13:20.860Z,56.41
2023-01-09T16:15:48.057Z,56.90
2023-01-09T16:18:15.496Z,56.29
2023-01-09T16:20:42.898Z,56.24
2023-01-09T16:23:24.162Z,56.82
2023-01-09T16:26:01.457Z,56.94
2023-01-09T16:28:30.833Z,56.66
2023-01-09T16:30:59.414Z,56.90
2023-01-09T16:33:27.225Z,57.24
2023-01-09T16:35:54.602Z,58.82
2023-01-09T16:38:22.820Z,57.48
2023-01-09T16:41:18.764Z,56.87
2023-01-09T16:43:46.381Z,56.88
2023-01-09T16:46:14.352Z,56.77
2023-01-09T16:48:41.563Z,56.85
2023-01-09T16:51:16.375Z,57.38
2023-01-09T16:53:43.964Z,57.51
2023-01-09T16:56:18.707Z,57.29
2023-01-09T16:58:46.459Z,58.15
2023-01-09T17:01:15.024Z,57.71
2023-01-09T17:03:44.068Z,57.69
2023-01-09T17:06:28.589Z,57.83
2023-01-09T17:08:56.355Z,58.18
2023-01-09T17:11:32.821Z,58.45
2023-01-09T17:14:03.817Z,59.49
2023-01-09T17:16:30.994Z,61.08
2023-01-09T17:18:58.222Z,61.22
2023-01-09T17:21:26.897Z,60.26
2023-01-09T17:24:12.622Z,60.57
2023-01-09T17:26:59.870Z,59.79
2023-01-09T17:29:27.670Z,59.16
2023-01-09T17:31:55.262Z,60.20
2023-01-09T17:34:22.477Z,60.18
2023-01-09T17:36:49.783Z,62.20
2023-01-09T17:39:17.374Z,61.24
2023-01-09T17:41:44.672Z,62.04
2023-01-09T17:44:11.938Z,61.60
2023-01-09T17:46:40.485Z,61.94
2023-01-09T17:49:07.970Z,61.60
2023-01-09T17:51:35.253Z,62.22
2023-01-09T17:54:02.783Z,62.20
2023-01-09T17:56:32.506Z,62.61
2023-01-09T17:58:59.859Z,61.05
2023-01-09T18:01:27.308Z,60.23
2023-01-09T18:03:54.940Z,60.24
2023-01-09T18:06:22.362Z,60.03
2023-01-09T18:08:49.567Z,59.63
2023-01-09T18:11:18.413Z,59.62
2023-01-09T18:13:46.034Z,59.34
2023-01-09T18:16:13.928Z,58.93
2023-01-09T18:18:41.562Z,58.87
2023-01-09T18:21:09.108Z,58.68
2023-01-09T18:23:36.329Z,58.35
2023-01-09T18:26:07.181Z,58.41
2023-01-09T18:28:38.116Z,57.87
2023-01-09T18:31:06.212Z,57.91
2023-01-09T18:33:33.526Z,57.83
2023-01-09T18:36:07.523Z,57.93
2023-01-09T18:38:35.000Z,57.66
2023-01-09T18:41:02.494Z,58.19
2023-01-09T18:43:29.912Z,58.21
2023-01-09T18:45:57.481Z,58.42
2023-01-09T18:48:25.081Z,57.76
2023-01-09T18:50:52.396Z,57.25
2023-01-09T18:53:20.066Z,57.55
2023-01-09T18:55:47.550Z,59.31
2023-01-09T18:58:16.470Z,58.91
2023-01-09T19:00:46.002Z,63.13
2023-01-09T19:03:13.824Z,60.43
2023-01-09T19:05:41.167Z,60.56
2023-01-09T19:08:09.942Z,61.96
2023-01-09T19:10:37.289Z,61.29
2023-01-09T19:13:05.146Z,61.22
2023-01-09T19:15:34.720Z,60.85
2023-01-09T19:18:02.002Z,62.75
2023-01-09T19:20:29.814Z,64.22
2023-01-09T19:22:57.370Z,64.02
2023-01-09T19:25:24.964Z,65.29
2023-01-09T19:27:54.910Z,64.15
2023-01-09T19:30:22.614Z,64.25
2023-01-09T19:32:49.971Z,62.82
2023-01-09T19:35:17.673Z,63.70
2023-01-09T19:37:45.363Z,63.89
2023-01-09T19:40:12.865Z,61.99
2023-01-09T19:42:40.085Z,62.14
2023-01-09T19:45:08.075Z,62.24
2023-01-09T19:47:38.106Z,61.21
2023-01-09T19:50:05.732Z,62.35
2023-01-09T19:52:33.431Z,63.33
2023-01-09T19:55:00.647Z,64.90
2023-01-09T19:57:27.920Z,64.71
2023-01-09T19:59:55.406Z,64.74
2023-01-09T20:02:22.630Z,63.91
2023-01-09T20:04:50.180Z,62.88
2023-01-09T20:07:17.467Z,64.44
2023-01-09T20:09:44.900Z,63.42
2023-01-09T20:12:12.508Z,65.79
2023-01-09T20:14:39.760Z,65.64
2023-01-09T20:17:06.977Z,64.67
2023-01-09T20:19:35.183Z,64.39
2023-01-09T20:22:02.397Z,63.67
2023-01-09T20:24:29.761Z,64.69
2023-01-09T20:26:57.362Z,66.56
2023-01-09T20:29:24.857Z,65.85
2023-01-09T20:31:52.546Z,67.16
2023-01-09T20:34:20.227Z,68.35
2023-01-09T20:36:47.476Z,70.17
2023-01-09T20:39:14.956Z,68.62
2023-01-09T20:41:42.529Z,70.55
2023-01-09T20:44:11.625Z,69.71
2023-01-09T20:46:40.141Z,69.73
2023-01-09T20:49:09.649Z,68.81
2023-01-09T20:51:40.163Z,68.46
2023-01-09T20:54:07.648Z,69.26
2023-01-09T20:56:36.270Z,68.96
2023-01-09T20:59:04.270Z,69.32
2023-01-09T21:01:32.048Z,72.23
2023-01-09T21:03:59.344Z,70.16
2023-01-09T21:06:27.223Z,69.87
2023-01-09T21:08:54.738Z,68.69
2023-01-09T21:11:22.158Z,69.55
2023-01-09T21:13:49.595Z,67.96
2023-01-09T21:16:19.913Z,70.77
2023-01-09T21:18:47.520Z,70.62
2023-01-09T21:21:15.716Z,71.21
2023-01-09T21:23:46.454Z,70.09
2023-01-09T21:26:13.919Z,69.78
2023-01-09T21:28:50.665Z,69.99
2023-01-09T21:31:19.470Z,71.88
2023-01-09T21:33:47.042Z,71.55
2023-01-09T21:36:14.932Z,69.09
2023-01-09T21:38:42.469Z,68.47
2023-01-09T21:41:28.059Z,68.16
2023-01-09T21:44:14.557Z,67.17
2023-01-09T21:46:55.979Z,68.07
2023-01-09T21:49:25.494Z,65.75
2023-01-09T21:51:53.473Z,66.33
2023-01-09T21:54:21.585Z,67.98
2023-01-09T21:56:49.286Z,70.09
2023-01-09T21:59:17.188Z,66.68
2023-01-09T22:01:44.467Z,66.45
2023-01-09T22:04:13.611Z,67.46
2023-01-09T22:06:40.872Z,66.10
2023-01-09T22:09:08.089Z,66.90
2023-01-09T22:11:35.976Z,65.60
2023-01-09T22:14:03.270Z,65.47
2023-01-09T22:16:30.681Z,67.70
2023-01-09T22:18:58.296Z,67.14
2023-01-09T22:21:25.692Z,65.38
2023-01-09T22:23:52.985Z,65.97
2023-01-09T22:26:20.598Z,66.88
2023-01-09T22:28:48.004Z,64.84
2023-01-09T22:31:16.786Z,64.25
2023-01-09T22:33:44.295Z,64.39
2023-01-09T22:36:11.787Z,66.08
2023-01-09T22:38:39.248Z,64.99
2023-01-09T22:41:06.817Z,64.65
2023-01-09T22:43:34.057Z,64.40
2023-01-09T22:46:02.048Z,63.47
2023-01-09T22:48:31.839Z,65.80
2023-01-09T22:51:00.339Z,64.29
2023-01-09T22:53:27.931Z,64.96
2023-01-09T22:55:56.671Z,65.17
2023-01-09T22:58:24.442Z,64.17
2023-01-09T23:00:51.729Z,65.25
2023-01-09T23:03:19.212Z,63.81
2023-01-09T23:05:46.462Z,66.42
2023-01-09T23:08:14.329Z,64.91
2023-01-09T23:10:42.033Z,64.47
2023-01-09T23:13:09.212Z,63.91
2023-01-09T23:15:36.464Z,63.47
2023-01-09T23:18:04.006Z,63.31
2023-01-09T23:20:31.238Z,62.31
2023-01-09T23:22:59.085Z,62.14
2023-01-09T23:25:26.669Z,61.83
2023-01-09T23:27:53.870Z,61.93
2023-01-09T23:30:21.067Z,61.04
2023-01-09T23:32:48.572Z,61.04
2023-01-09T23:35:18.463Z,60.31
2023-01-09T23:37:45.652Z,59.82
2023-01-09T23:40:13.277Z,60.62
2023-01-09T23:42:59.275Z,60.10
2023-01-09T23:45:26.793Z,60.31
2023-01-09T23:47:54.002Z,59.05
2023-01-09T23:50:21.288Z,60.33
2023-01-09T23:52:48.800Z,59.50
2023-01-09T23:55:15.984Z,59.21
2023-01-09T23:57:43.190Z,58.75
